Time;durP1;ratioP1;P1;durP2;ratioP2;P2;SDS_P1;SDS_P2;PMS_P1;PMS_P2;Temp;Humidity;BMP_temperature;BMP_pressure;BME280_temperature;BME280_humidity;BME280_pressure;Samples;Min_cycle;Max_cycle;Signal;HPM_P1;HPM_P2
2022/10/05 00:00:21;;;;;;;9.23;3.60;;;16.30;99.90;;;;;;5091052;28;20218;-72
2022/10/05 00:02:53;;;;;;;13.90;4.40;;;16.20;99.90;;;;;;5089933;28;20727;-71
2022/10/05 00:05:46;;;;;;;12.70;4.50;;;16.20;99.90;;;;;;5090999;28;20207;-71
2022/10/05 00:08:18;;;;;;;10.50;3.97;;;16.20;99.90;;;;;;5078073;28;20191;-74
2022/10/05 00:10:46;;;;;;;14.77;3.90;;;16.30;99.90;;;;;;5081949;28;20782;-72
2022/10/05 00:13:16;;;;;;;13.97;4.53;;;16.40;99.90;;;;;;5079208;28;20266;-71
2022/10/05 00:15:44;;;;;;;11.10;3.83;;;16.40;99.90;;;;;;5086662;28;20182;-71
2022/10/05 00:18:20;;;;;;;9.87;3.97;;;16.50;99.90;;;;;;5084406;28;20183;-69
2022/10/05 00:20:48;;;;;;;12.23;4.40;;;16.50;99.90;;;;;;5077933;28;20232;-71
2022/10/05 00:23:24;;;;;;;15.73;4.60;;;16.50;99.90;;;;;;5076028;28;20216;-71
2022/10/05 00:25:52;;;;;;;13.87;4.70;;;16.40;99.90;;;;;;5073922;28;20237;-72
2022/10/05 00:28:29;;;;;;;8.07;3.90;;;16.40;99.90;;;;;;5089403;28;20180;-71
2022/10/05 00:31:00;;;;;;;7.83;3.43;;;16.40;99.90;;;;;;5076059;28;20273;-71
2022/10/05 00:33:28;;;;;;;9.33;3.10;;;16.50;99.90;;;;;;5094214;28;20229;-73
2022/10/05 00:35:56;;;;;;;9.13;4.00;;;16.60;99.90;;;;;;5074295;28;20276;-72
2022/10/05 00:38:23;;;;;;;15.67;4.27;;;16.60;99.90;;;;;;5090224;28;20218;-73
2022/10/05 00:41:00;;;;;;;12.83;4.07;;;16.80;99.90;;;;;;5078505;28;20172;-72
2022/10/05 00:43:48;;;;;;;13.33;3.90;;;16.90;99.90;;;;;;5089945;28;20219;-71
2022/10/05 00:46:33;;;;;;;10.93;4.00;;;17.10;99.90;;;;;;5037092;28;20666;-69
2022/10/05 00:49:16;;;;;;;7.90;4.23;;;17.10;99.90;;;;;;5071719;28;20187;-71
2022/10/05 00:52:04;;;;;;;9.93;3.73;;;17.00;99.90;;;;;;5082117;28;20257;-71
2022/10/05 00:54:44;;;;;;;11.13;3.77;;;17.00;99.90;;;;;;5093606;28;20178;-72
2022/10/05 00:57:45;;;;;;;13.63;5.10;;;17.10;99.90;;;;;;5092591;28;20265;-71
2022/10/05 01:00:18;;;;;;;12.90;3.93;;;17.20;99.90;;;;;;5093334;28;20276;-71
2022/10/05 01:03:09;;;;;;;9.70;4.23;;;17.30;99.90;;;;;;5083270;28;20600;-71
2022/10/05 01:06:18;;;;;;;10.97;3.73;;;17.30;99.90;;;;;;5073090;28;20179;-71
2022/10/05 01:08:55;;;;;;;10.93;4.40;;;17.40;99.90;;;;;;5055884;28;20645;-76
2022/10/05 01:11:47;;;;;;;13.17;4.17;;;17.50;99.90;;;;;;5091191;28;20179;-72
2022/10/05 01:14:36;;;;;;;14.67;4.33;;;17.50;99.90;;;;;;5077915;28;20262;-71
2022/10/05 01:17:29;;;;;;;10.93;4.17;;;17.50;99.90;;;;;;5093253;28;20257;-70
2022/10/05 01:20:15;;;;;;;12.70;4.53;;;17.40;99.90;;;;;;5031154;28;20287;-72
2022/10/05 01:23:07;;;;;;;15.87;4.40;;;17.30;99.90;;;;;;5073617;28;20214;-73
2022/10/05 01:25:46;;;;;;;11.90;3.77;;;17.10;99.90;;;;;;5077033;28;20171;-73
2022/10/05 01:28:43;;;;;;;8.87;4.07;;;17.00;99.90;;;;;;5092736;28;20207;-72
2022/10/05 01:31:26;;;;;;;16.20;3.80;;;17.00;99.90;;;;;;5043216;28;20659;-73
2022/10/05 01:34:03;;;;;;;13.40;4.07;;;17.10;99.90;;;;;;5085830;28;20530;-72
2022/10/05 01:36:43;;;;;;;13.07;4.70;;;17.10;99.90;;;;;;5083290;28;20179;-73
2022/10/05 01:39:17;;;;;;;13.70;4.37;;;17.10;99.90;;;;;;5088477;28;20186;-69
2022/10/05 01:42:26;;;;;;;10.33;3.33;;;17.10;99.90;;;;;;5088453;28;20720;-70
2022/10/05 01:45:13;;;;;;;9.67;2.63;;;16.90;99.90;;;;;;5072517;28;20200;-70
2022/10/05 01:47:55;;;;;;;13.43;2.77;;;16.60;99.90;;;;;;5080640;28;20183;-70
2022/10/05 01:50:41;;;;;;;5.93;2.50;;;16.40;99.90;;;;;;5066651;28;20203;-73
2022/10/05 01:53:30;;;;;;;13.23;2.40;;;16.00;99.90;;;;;;5092610;28;20259;-74
2022/10/05 01:56:14;;;;;;;15.53;3.07;;;15.90;99.90;;;;;;5072226;28;20704;-67
2022/10/05 01:59:07;;;;;;;9.83;2.70;;;15.80;99.90;;;;;;5071882;28;20752;-70
2022/10/05 02:01:54;;;;;;;9.87;3.10;;;15.80;99.90;;;;;;5086876;28;20255;-69
2022/10/05 02:04:52;;;;;;;14.37;4.00;;;15.80;99.90;;;;;;5085096;28;20211;-68
2022/10/05 02:07:36;;;;;;;13.03;2.90;;;15.90;99.90;;;;;;5079883;28;20203;-72
2022/10/05 02:10:30;;;;;;;13.77;3.13;;;16.00;99.90;;;;;;5077227;28;20211;-72
2022/10/05 02:13:06;;;;;;;9.53;2.60;;;16.10;99.90;;;;;;5051147;28;20184;-72
2022/10/05 02:15:41;;;;;;;12.13;3.00;;;16.10;99.90;;;;;;5060311;28;20209;-71
2022/10/05 02:18:18;;;;;;;18.10;3.37;;;16.00;99.90;;;;;;5053462;28;20278;-70
2022/10/05 02:20:48;;;;;;;14.47;3.43;;;16.00;99.90;;;;;;5071779;28;20342;-73
2022/10/05 02:23:25;;;;;;;18.07;3.70;;;16.00;99.90;;;;;;5073488;28;20708;-69
2022/10/05 02:25:55;;;;;;;15.37;3.20;;;16.10;99.90;;;;;;5091591;28;20254;-69
2022/10/05 02:28:43;;;;;;;17.40;3.60;;;16.00;99.90;;;;;;5075089;28;20558;-76
2022/10/05 02:31:18;;;;;;;17.10;3.43;;;16.10;99.90;;;;;;5071674;28;20183;-71
2022/10/05 02:33:45;;;;;;;9.70;3.17;;;16.00;99.90;;;;;;5065007;28;20618;-69
2022/10/05 02:36:23;;;;;;;16.23;3.17;;;16.00;99.90;;;;;;5091535;28;20644;-73
2022/10/05 02:39:14;;;;;;;13.73;3.10;;;15.80;99.90;;;;;;5071544;28;20676;-71
2022/10/05 02:42:09;;;;;;;13.70;3.10;;;15.70;99.90;;;;;;5071693;28;20176;-69
2022/10/05 02:45:02;;;;;;;10.13;3.07;;;15.70;99.90;;;;;;5071694;28;20677;-72
2022/10/05 02:47:38;;;;;;;10.57;2.90;;;15.60;99.90;;;;;;5078288;28;20171;-73
2022/10/05 02:50:17;;;;;;;11.77;2.93;;;15.60;99.90;;;;;;5089688;28;20181;-72
2022/10/05 02:52:54;;;;;;;10.63;2.80;;;15.60;99.90;;;;;;5088343;28;20236;-68
2022/10/05 02:55:34;;;;;;;14.83;3.47;;;15.60;99.90;;;;;;5091346;28;20601;-68
2022/10/05 02:58:24;;;;;;;14.10;3.07;;;15.70;99.90;;;;;;5088177;28;20191;-68
2022/10/05 03:01:21;;;;;;;10.77;2.67;;;15.80;99.90;;;;;;5056601;28;20277;-68
2022/10/05 03:04:21;;;;;;;14.47;3.40;;;15.70;99.90;;;;;;5071165;28;20219;-71
2022/10/05 03:07:09;;;;;;;9.30;3.13;;;15.70;99.90;;;;;;5071496;28;20195;-70
2022/10/05 03:09:43;;;;;;;15.70;2.97;;;15.70;99.90;;;;;;5071490;28;20191;-69
2022/10/05 03:12:49;;;;;;;11.57;3.27;;;15.70;99.90;;;;;;5071415;28;20661;-69
2022/10/05 03:15:39;;;;;;;22.90;4.00;;;15.80;99.90;;;;;;5074900;28;20215;-67
2022/10/05 03:18:43;;;;;;;14.83;3.43;;;15.80;99.90;;;;;;5072057;28;20188;-68
2022/10/05 03:21:31;;;;;;;17.50;3.30;;;15.90;99.90;;;;;;5057213;28;20188;-68
2022/10/05 03:24:23;;;;;;;13.07;3.80;;;15.80;99.90;;;;;;5074946;28;20215;-69
2022/10/05 03:26:59;;;;;;;15.63;3.47;;;15.80;99.90;;;;;;5075207;28;20244;-70
2022/10/05 03:29:40;;;;;;;24.73;4.83;;;15.70;99.90;;;;;;5090478;28;20265;-71
2022/10/05 03:32:34;;;;;;;19.47;3.63;;;15.70;99.90;;;;;;5089393;28;20182;-70
2022/10/05 03:35:27;;;;;;;16.87;3.47;;;15.80;99.90;;;;;;5097229;28;20187;-68
2022/10/05 03:37:57;;;;;;;15.57;3.30;;;15.80;99.90;;;;;;5075545;28;20188;-67
2022/10/05 03:40:49;;;;;;;17.20;3.83;;;15.70;99.90;;;;;;5088864;28;20184;-69
2022/10/05 03:43:35;;;;;;;18.97;3.97;;;15.70;99.90;;;;;;5075858;28;20220;-68
2022/10/05 03:46:09;;;;;;;12.60;2.93;;;15.70;99.90;;;;;;5089450;28;20179;-69
2022/10/05 03:49:17;;;;;;;20.93;3.93;;;15.80;99.90;;;;;;5095195;28;20653;-69
2022/10/05 03:52:06;;;;;;;21.37;3.37;;;15.60;99.90;;;;;;5047695;28;20195;-67
2022/10/05 03:55:00;;;;;;;18.93;3.30;;;15.50;99.90;;;;;;5074930;28;20183;-70
2022/10/05 03:57:33;;;;;;;15.40;3.97;;;15.50;99.90;;;;;;5090593;28;20672;-69
2022/10/05 04:00:07;;;;;;;20.83;3.67;;;15.50;99.90;;;;;;5078085;28;20237;-70
2022/10/05 04:02:40;;;;;;;18.40;3.53;;;15.60;99.90;;;;;;5091203;28;20772;-72
2022/10/05 04:05:11;;;;;;;22.47;4.33;;;15.60;99.90;;;;;;5091095;28;20187;-71
2022/10/05 04:07:49;;;;;;;22.30;3.90;;;15.60;99.90;;;;;;5078942;28;20234;-70
2022/10/05 04:10:32;;;;;;;15.00;3.90;;;15.60;99.90;;;;;;5088389;28;20233;-72
2022/10/05 04:13:15;;;;;;;17.67;4.23;;;15.50;99.90;;;;;;5079788;28;20190;-70
2022/10/05 04:16:02;;;;;;;20.07;3.43;;;15.50;99.90;;;;;;5080418;28;20207;-69
2022/10/05 04:18:44;;;;;;;21.77;3.43;;;15.60;99.90;;;;;;5091747;28;20190;-70
2022/10/05 04:21:29;;;;;;;23.10;3.97;;;15.50;99.90;;;;;;5090165;28;20183;-70
2022/10/05 04:24:27;;;;;;;15.27;4.03;;;15.50;99.90;;;;;;5095647;28;20207;-70
2022/10/05 04:27:14;;;;;;;20.80;3.33;;;15.50;99.90;;;;;;5095890;28;20167;-69
2022/10/05 04:30:11;;;;;;;15.13;3.40;;;15.60;99.90;;;;;;5096282;28;20180;-69
2022/10/05 04:32:44;;;;;;;21.17;3.23;;;15.70;99.90;;;;;;5085222;28;20194;-69
2022/10/05 04:35:21;;;;;;;13.70;3.17;;;15.60;99.90;;;;;;5095268;28;20327;-69
2022/10/05 04:38:22;;;;;;;22.00;3.93;;;15.60;99.90;;;;;;5095742;28;20179;-68
2022/10/05 04:41:08;;;;;;;18.10;3.40;;;15.70;99.90;;;;;;5095460;28;20236;-69
2022/10/05 04:44:06;;;;;;;15.57;3.80;;;15.70;99.90;;;;;;5077340;28;20250;-68
2022/10/05 04:47:00;;;;;;;16.83;3.47;;;15.60;99.90;;;;;;5095281;28;20254;-68
2022/10/05 04:49:44;;;;;;;19.20;4.10;;;15.50;99.90;;;;;;5095013;28;20187;-68
2022/10/05 04:52:23;;;;;;;15.47;3.63;;;15.50;99.90;;;;;;5095302;28;20174;-68
2022/10/05 04:55:04;;;;;;;12.63;4.00;;;15.40;99.90;;;;;;5095019;28;20182;-68
2022/10/05 04:57:47;;;;;;;14.43;3.73;;;15.30;99.90;;;;;;5094898;28;20178;-68
2022/10/05 05:00:22;;;;;;;16.27;4.13;;;15.30;99.90;;;;;;5095043;28;20731;-68
2022/10/05 05:03:06;;;;;;;16.03;3.97;;;15.20;99.90;;;;;;5094882;28;20686;-68
2022/10/05 05:05:57;;;;;;;13.40;3.00;;;15.10;99.90;;;;;;5095443;28;20254;-68
2022/10/05 05:08:37;;;;;;;11.33;3.30;;;15.10;99.90;;;;;;5095418;28;20194;-68
2022/10/05 05:11:33;;;;;;;15.07;3.17;;;15.20;99.90;;;;;;5095378;28;20171;-69
2022/10/05 05:14:32;;;;;;;18.10;3.60;;;15.20;99.90;;;;;;5094882;28;20708;-69
2022/10/05 05:17:33;;;;;;;16.43;3.80;;;15.20;99.90;;;;;;5094254;28;20188;-69
2022/10/05 05:20:18;;;;;;;17.23;3.63;;;15.30;99.90;;;;;;5094730;28;20596;-69
2022/10/05 05:23:01;;;;;;;14.13;3.50;;;15.30;99.90;;;;;;5094629;28;20202;-69
2022/10/05 05:25:33;;;;;;;26.27;3.93;;;15.30;99.90;;;;;;5095429;28;20179;-70
2022/10/05 05:28:37;;;;;;;16.30;3.40;;;15.30;99.90;;;;;;5094790;28;20167;-68
2022/10/05 05:31:15;;;;;;;12.33;2.77;;;15.30;99.90;;;;;;5094437;28;20542;-68
2022/10/05 05:33:55;;;;;;;13.30;3.57;;;15.40;99.90;;;;;;5076134;28;20217;-69
2022/10/05 05:36:54;;;;;;;16.33;3.73;;;15.40;99.90;;;;;;5094363;28;20586;-68
2022/10/05 05:39:54;;;;;;;19.13;3.40;;;15.40;99.90;;;;;;5094494;28;20167;-69
2022/10/05 05:42:53;;;;;;;15.33;3.13;;;15.40;99.90;;;;;;5093766;28;20219;-68
2022/10/05 05:45:38;;;;;;;10.83;3.27;;;15.50;99.90;;;;;;5094377;28;20179;-68
2022/10/05 05:48:32;;;;;;;21.70;4.67;;;15.40;99.90;;;;;;5094434;28;20203;-67
2022/10/05 05:51:21;;;;;;;19.50;3.93;;;15.40;99.90;;;;;;5093740;28;20186;-68
2022/10/05 05:53:54;;;;;;;14.07;3.53;;;15.40;99.90;;;;;;5094404;28;20235;-70
2022/10/05 05:56:50;;;;;;;17.20;3.60;;;15.30;99.90;;;;;;5094161;28;20221;-69
2022/10/05 05:59:30;;;;;;;17.77;4.00;;;15.20;99.90;;;;;;5090702;28;20254;-67
2022/10/05 06:02:08;;;;;;;11.87;2.80;;;15.20;99.90;;;;;;5093908;28;20175;-67
2022/10/05 06:04:49;;;;;;;15.57;2.60;;;15.20;99.90;;;;;;5093946;28;20187;-69
2022/10/05 06:07:23;;;;;;;15.50;3.10;;;15.20;99.90;;;;;;5093817;28;20262;-68
2022/10/05 06:10:03;;;;;;;16.83;3.47;;;15.20;99.90;;;;;;5093881;28;20217;-69
2022/10/05 06:12:42;;;;;;;17.43;3.40;;;15.20;99.90;;;;;;5075378;28;20559;-69
2022/10/05 06:15:30;;;;;;;23.87;3.73;;;15.20;99.90;;;;;;5094099;28;20250;-68
2022/10/05 06:18:02;;;;;;;19.67;3.43;;;15.20;99.90;;;;;;5075389;28;20262;-68
2022/10/05 06:20:49;;;;;;;19.87;4.00;;;15.20;99.90;;;;;;5093643;28;20178;-69
2022/10/05 06:23:37;;;;;;;17.63;4.17;;;15.20;99.90;;;;;;5093463;28;20229;-68
2022/10/05 06:26:17;;;;;;;19.20;4.67;;;15.20;99.90;;;;;;5093512;28;20171;-68
2022/10/05 06:28:55;;;;;;;25.03;4.57;;;15.30;99.90;;;;;;5093987;28;20173;-69
2022/10/05 06:31:41;;;;;;;14.53;3.40;;;15.30;99.90;;;;;;5093493;28;20190;-69
2022/10/05 06:34:23;;;;;;;21.53;4.30;;;15.30;99.90;;;;;;5093405;28;20182;-69
2022/10/05 06:36:58;;;;;;;18.37;3.97;;;15.30;99.90;;;;;;5094107;28;20208;-69
2022/10/05 06:39:57;;;;;;;11.47;3.27;;;15.30;99.90;;;;;;5093086;28;20311;-69
2022/10/05 06:42:30;;;;;;;17.83;3.97;;;15.30;99.90;;;;;;5093353;28;20167;-69
2022/10/05 06:45:23;;;;;;;19.10;3.10;;;15.30;99.90;;;;;;5093310;28;20678;-69
2022/10/05 06:48:09;;;;;;;18.83;3.50;;;15.30;99.90;;;;;;5093671;28;20175;-69
2022/10/05 06:51:11;;;;;;;26.93;3.87;;;15.30;99.90;;;;;;5093391;28;20232;-68
2022/10/05 06:54:08;;;;;;;22.93;3.83;;;15.30;99.90;;;;;;5077675;28;20174;-69
2022/10/05 06:56:55;;;;;;;18.50;4.63;;;15.30;99.90;;;;;;5058900;28;20190;-68
2022/10/05 06:59:43;;;;;;;17.70;3.77;;;15.20;99.90;;;;;;5097065;28;20253;-69
2022/10/05 07:02:31;;;;;;;21.93;4.03;;;15.20;99.90;;;;;;5097282;28;20175;-69
2022/10/05 07:05:16;;;;;;;19.43;4.83;;;15.20;99.90;;;;;;5097613;28;20286;-68
2022/10/05 07:08:02;;;;;;;24.67;4.27;;;15.20;99.90;;;;;;5097283;28;20297;-69
2022/10/05 07:10:58;;;;;;;18.23;3.40;;;15.10;99.90;;;;;;5097080;28;20190;-69
2022/10/05 07:13:55;;;;;;;19.57;3.77;;;15.10;99.90;;;;;;5097242;28;20179;-68
2022/10/05 07:16:26;;;;;;;15.90;3.47;;;15.10;99.90;;;;;;5097315;28;20199;-69
2022/10/05 07:19:41;;;;;;;22.87;3.60;;;15.10;99.90;;;;;;5097011;28;20225;-68
2022/10/05 07:22:24;;;;;;;15.00;3.40;;;15.10;99.90;;;;;;4995913;28;20183;-70
2022/10/05 07:25:07;;;;;;;18.87;4.17;;;15.10;99.90;;;;;;5087974;28;20199;-69
2022/10/05 07:27:43;;;;;;;17.00;3.43;;;15.10;99.90;;;;;;5097247;28;20171;-69
2022/10/05 07:30:15;;;;;;;16.93;3.47;;;15.20;99.90;;;;;;5096656;28;20196;-69
2022/10/05 07:33:25;;;;;;;20.20;3.80;;;15.10;99.90;;;;;;5097594;28;20171;-69
2022/10/05 07:39:17;;;;;;;23.90;4.17;;;15.10;99.90;;;;;;4995242;28;20212;-70
2022/10/05 07:41:50;;;;;;;16.53;3.73;;;15.00;99.90;;;;;;5088094;28;20225;-69
2022/10/05 07:44:32;;;;;;;19.30;3.97;;;15.00;99.90;;;;;;5078126;28;20579;-69
2022/10/05 07:47:08;;;;;;;16.60;3.87;;;14.90;99.90;;;;;;5096564;28;20175;-69
2022/10/05 07:49:45;;;;;;;16.20;3.87;;;14.90;99.90;;;;;;5096674;28;20215;-69
2022/10/05 07:52:36;;;;;;;18.50;3.60;;;14.90;99.90;;;;;;5096343;28;20262;-68
2022/10/05 07:55:16;;;;;;;21.37;4.10;;;14.90;99.90;;;;;;5096402;28;20569;-69
2022/10/05 07:58:11;;;;;;;14.20;4.13;;;14.80;99.90;;;;;;5096237;28;20260;-69
2022/10/05 08:01:17;;;;;;;17.80;3.57;;;14.90;99.90;;;;;;5096098;28;20665;-68
2022/10/05 08:04:01;;;;;;;22.13;4.27;;;14.90;99.90;;;;;;5060122;28;20222;-67
2022/10/05 08:06:37;;;;;;;23.23;5.80;;;14.90;99.90;;;;;;5095408;28;20186;-69
2022/10/05 08:09:18;;;;;;;15.93;4.37;;;14.90;99.90;;;;;;5077833;28;20236;-69
2022/10/05 08:12:08;;;;;;;25.03;4.60;;;14.90;99.90;;;;;;5096231;28;20643;-69
2022/10/05 08:15:12;;;;;;;21.57;4.87;;;14.90;99.90;;;;;;5077857;28;20187;-68
2022/10/05 08:18:10;;;;;;;24.67;4.87;;;14.90;99.90;;;;;;5095787;28;20184;-68
2022/10/05 08:20:41;;;;;;;27.90;4.20;;;14.90;99.90;;;;;;5091421;28;20263;-68
2022/10/05 08:23:20;;;;;;;21.43;4.00;;;14.90;99.90;;;;;;5095673;28;20191;-69
2022/10/05 08:26:26;;;;;;;19.53;5.20;;;14.80;99.90;;;;;;5095848;28;20231;-68
2022/10/05 08:29:17;;;;;;;20.73;4.07;;;14.70;99.90;;;;;;5058641;28;20236;-68
2022/10/05 08:31:49;;;;;;;25.73;3.93;;;14.70;99.90;;;;;;5096020;28;20178;-68
2022/10/05 08:34:34;;;;;;;25.67;4.10;;;14.70;99.90;;;;;;5095672;28;20208;-69
2022/10/05 08:37:19;;;;;;;23.97;4.00;;;14.70;99.90;;;;;;5095614;28;20183;-69
2022/10/05 08:39:55;;;;;;;21.00;4.50;;;14.70;99.90;;;;;;5095547;28;20183;-68
2022/10/05 08:42:58;;;;;;;22.27;4.90;;;14.70;99.90;;;;;;5095478;28;20212;-69
2022/10/05 08:45:51;;;;;;;18.27;4.53;;;14.70;99.90;;;;;;5095843;28;20179;-68
2022/10/05 08:48:55;;;;;;;15.63;3.93;;;14.70;99.90;;;;;;5048968;28;20283;-68
2022/10/05 08:51:44;;;;;;;16.53;3.20;;;14.70;99.90;;;;;;5095567;28;20171;-69
2022/10/05 08:54:29;;;;;;;15.30;3.90;;;14.70;99.90;;;;;;5095475;28;20170;-69
2022/10/05 08:57:27;;;;;;;23.60;4.77;;;14.70;99.90;;;;;;5095059;28;20263;-68
2022/10/05 09:00:45;;;;;;;16.03;4.13;;;14.70;99.90;;;;;;5094963;28;20583;-69
2022/10/05 09:03:35;;;;;;;16.20;3.93;;;14.70;99.90;;;;;;4993650;28;20329;-69
2022/10/05 09:06:24;;;;;;;15.33;3.83;;;14.70;99.90;;;;;;5094164;28;20262;-69
2022/10/05 09:09:02;;;;;;;14.57;4.40;;;14.70;99.90;;;;;;5094885;28;20182;-69
2022/10/05 09:11:47;;;;;;;21.27;4.07;;;14.70;99.90;;;;;;5095435;28;20181;-69
2022/10/05 09:14:43;;;;;;;19.90;4.33;;;14.70;99.90;;;;;;5094966;28;20636;-69
2022/10/05 09:17:33;;;;;;;21.90;3.97;;;14.70;99.90;;;;;;5089133;28;20215;-68
2022/10/05 09:20:15;;;;;;;19.93;4.60;;;14.70;99.90;;;;;;5094670;28;20176;-69
2022/10/05 09:22:59;;;;;;;20.87;4.43;;;14.70;99.90;;;;;;5094807;28;20199;-69
2022/10/05 09:25:47;;;;;;;21.57;4.70;;;14.70;99.90;;;;;;5094866;28;20189;-69
2022/10/05 09:28:53;;;;;;;18.00;3.70;;;14.70;99.90;;;;;;5094727;28;20207;-68
2022/10/05 09:31:20;;;;;;;23.93;4.60;;;14.70;99.90;;;;;;4993649;28;20188;-68
2022/10/05 09:34:29;;;;;;;18.53;3.43;;;14.70;99.90;;;;;;4993148;28;20325;-68
2022/10/05 09:37:30;;;;;;;26.47;4.83;;;14.60;99.90;;;;;;5050781;28;20187;-70
2022/10/05 09:40:19;;;;;;;22.07;4.93;;;14.70;99.90;;;;;;5062105;28;20648;-69
2022/10/05 09:43:10;;;;;;;23.17;4.13;;;14.70;99.90;;;;;;5094503;28;20741;-69
2022/10/05 09:46:09;;;;;;;29.77;4.70;;;14.70;99.90;;;;;;5094410;28;20707;-69
2022/10/05 09:48:54;;;;;;;18.67;3.70;;;14.80;99.90;;;;;;5094027;28;20214;-69
2022/10/05 09:51:59;;;;;;;22.70;4.97;;;14.80;99.90;;;;;;5075974;28;20179;-69
2022/10/05 09:54:39;;;;;;;16.87;4.37;;;14.70;99.90;;;;;;5094160;28;20408;-69
2022/10/05 09:57:43;;;;;;;25.50;4.63;;;14.70;99.90;;;;;;5075857;28;20183;-70
2022/10/05 10:00:19;;;;;;;21.30;4.37;;;14.80;99.90;;;;;;5094059;28;20313;-70
2022/10/05 10:03:17;;;;;;;22.07;3.93;;;14.80;99.90;;;;;;5093882;28;20593;-69
2022/10/05 10:06:21;;;;;;;20.87;4.80;;;14.80;99.90;;;;;;5094116;28;20265;-70
2022/10/05 10:09:34;;;;;;;14.57;4.20;;;14.80;99.90;;;;;;5094293;28;20639;-70
2022/10/05 10:12:20;;;;;;;26.30;4.43;;;14.70;99.90;;;;;;5093752;28;20209;-69
2022/10/05 10:15:06;;;;;;;18.83;4.03;;;14.70;99.90;;;;;;5093915;28;20187;-69
2022/10/05 10:17:36;;;;;;;18.20;3.93;;;14.80;99.90;;;;;;5094002;28;20258;-69
2022/10/05 10:20:24;;;;;;;17.77;3.87;;;14.80;99.90;;;;;;5094198;28;20171;-69
2022/10/05 10:22:51;;;;;;;22.40;5.33;;;14.80;99.90;;;;;;5093796;28;20195;-68
2022/10/05 10:25:36;;;;;;;27.10;4.33;;;14.80;99.90;;;;;;5093845;28;20183;-69
2022/10/05 10:28:24;;;;;;;21.90;4.40;;;14.80;99.90;;;;;;5093413;28;20241;-67
2022/10/05 10:31:14;;;;;;;31.43;4.83;;;14.80;99.90;;;;;;5076399;28;20273;-67
2022/10/05 10:34:21;;;;;;;26.93;4.17;;;14.70;99.90;;;;;;5093910;28;20167;-69
2022/10/05 10:36:55;;;;;;;20.23;4.20;;;14.70;99.90;;;;;;5094078;28;20632;-69
2022/10/05 10:39:48;;;;;;;19.00;4.50;;;14.70;99.90;;;;;;5093411;28;20247;-68
2022/10/05 10:42:27;;;;;;;20.40;4.10;;;14.70;99.90;;;;;;5093779;28;20688;-68
2022/10/05 10:45:32;;;;;;;18.43;3.53;;;14.80;99.90;;;;;;5093922;28;20179;-68
2022/10/05 10:48:20;;;;;;;18.87;3.70;;;14.70;99.90;;;;;;5093606;28;20533;-69
2022/10/05 10:50:59;;;;;;;22.53;4.30;;;14.70;99.90;;;;;;5093536;28;20193;-70
2022/10/05 10:53:37;;;;;;;22.60;3.57;;;14.80;99.90;;;;;;5093978;28;20228;-69
2022/10/05 10:56:29;;;;;;;20.50;3.83;;;14.80;99.90;;;;;;5093490;28;20206;-70
2022/10/05 10:59:35;;;;;;;18.13;3.50;;;14.80;99.90;;;;;;5092983;28;20761;-68
2022/10/05 11:02:56;;;;;;;18.80;3.93;;;14.70;99.90;;;;;;5093361;28;20527;-68
2022/10/05 11:05:30;;;;;;;20.33;3.33;;;14.70;99.90;;;;;;5093732;28;20175;-69
2022/10/05 11:08:06;;;;;;;21.20;3.93;;;14.70;99.90;;;;;;5093821;28;20185;-69
2022/10/05 11:10:40;;;;;;;17.37;3.70;;;14.70;99.90;;;;;;5093129;28;20191;-68
2022/10/05 11:13:27;;;;;;;17.83;2.63;;;14.70;99.90;;;;;;5093165;28;20179;-68
2022/10/05 11:16:12;;;;;;;16.70;3.67;;;14.70;99.90;;;;;;5093168;28;20265;-69
2022/10/05 11:18:55;;;;;;;20.13;3.87;;;14.70;99.90;;;;;;5093149;28;20171;-69
2022/10/05 11:21:40;;;;;;;22.87;3.70;;;14.60;99.90;;;;;;5088829;28;20543;-70
2022/10/05 11:24:42;;;;;;;16.03;3.47;;;14.60;99.90;;;;;;5077739;28;20256;-70
2022/10/05 11:27:21;;;;;;;24.57;4.90;;;14.60;99.90;;;;;;5073855;28;20718;-70
2022/10/05 11:30:11;;;;;;;18.63;3.67;;;14.60;99.90;;;;;;5090315;28;20191;-71
2022/10/05 11:33:10;;;;;;;21.13;4.17;;;14.60;99.90;;;;;;5092792;28;20180;-70
2022/10/05 11:35:58;;;;;;;15.53;4.17;;;14.60;99.90;;;;;;5092662;28;20186;-69
2022/10/05 11:38:54;;;;;;;21.83;4.03;;;14.60;99.90;;;;;;5092109;28;20206;-71
2022/10/05 11:41:42;;;;;;;24.07;4.60;;;14.60;99.90;;;;;;5080631;28;20536;-70
2022/10/05 11:44:26;;;;;;;22.37;3.77;;;14.60;99.90;;;;;;5096825;28;20671;-70
2022/10/05 11:47:25;;;;;;;18.93;3.50;;;14.60;99.90;;;;;;5096239;28;20167;-70
2022/10/05 11:50:05;;;;;;;25.13;3.93;;;14.60;99.90;;;;;;5096517;28;20220;-70
2022/10/05 11:53:00;;;;;;;25.47;4.70;;;14.60;99.90;;;;;;5096619;28;20167;-70
2022/10/05 11:55:44;;;;;;;16.23;3.50;;;14.70;99.90;;;;;;5076305;28;20187;-70
2022/10/05 11:58:31;;;;;;;19.03;4.10;;;14.60;99.90;;;;;;5082558;28;20632;-71
2022/10/05 12:01:20;;;;;;;24.07;3.60;;;14.60;99.90;;;;;;5096919;28;20274;-70
2022/10/05 12:04:03;;;;;;;26.13;3.43;;;14.60;99.90;;;;;;5095835;28;20268;-71
2022/10/05 12:06:38;;;;;;;27.17;5.50;;;14.60;99.90;;;;;;5075906;28;20644;-71
2022/10/05 12:09:23;;;;;;;20.33;4.20;;;14.60;99.90;;;;;;5075874;28;20174;-71
2022/10/05 12:12:25;;;;;;;25.33;5.27;;;14.60;99.90;;;;;;5089209;28;20232;-72
2022/10/05 12:15:23;;;;;;;20.97;4.30;;;14.50;99.90;;;;;;5096103;28;20184;-71
2022/10/05 12:18:22;;;;;;;21.73;3.50;;;14.50;99.90;;;;;;5094303;28;20181;-71
2022/10/05 12:20:58;;;;;;;18.03;3.80;;;14.50;99.90;;;;;;5095457;28;20183;-71
2022/10/05 12:24:03;;;;;;;24.23;3.77;;;14.50;99.90;;;;;;5096060;28;20256;-71
2022/10/05 12:26:46;;;;;;;16.03;3.37;;;14.50;99.90;;;;;;5044636;28;20195;-71
2022/10/05 12:29:17;;;;;;;22.83;4.27;;;14.50;99.90;;;;;;5095556;28;20187;-71
2022/10/05 12:32:01;;;;;;;16.87;3.43;;;14.60;99.90;;;;;;5093937;28;20252;-71
2022/10/05 12:34:50;;;;;;;20.03;3.50;;;14.60;99.90;;;;;;5096285;28;20262;-71
2022/10/05 12:37:39;;;;;;;22.27;4.27;;;14.60;99.90;;;;;;5095674;28;20204;-72
2022/10/05 12:40:29;;;;;;;21.07;3.43;;;14.60;99.90;;;;;;5096237;28;20255;-72
2022/10/05 12:43:09;;;;;;;17.83;4.07;;;14.50;99.90;;;;;;5039360;28;20311;-72
2022/10/05 12:45:37;;;;;;;27.10;4.50;;;14.50;99.90;;;;;;5081080;28;20186;-71
2022/10/05 12:48:26;;;;;;;26.33;4.67;;;14.60;99.90;;;;;;5074942;28;20184;-72
2022/10/05 12:51:34;;;;;;;17.33;3.93;;;14.50;99.90;;;;;;5076772;28;20258;-72
2022/10/05 12:54:07;;;;;;;18.93;3.83;;;14.50;99.90;;;;;;5024697;28;20197;-71
2022/10/05 12:56:56;;;;;;;17.43;4.37;;;14.50;99.90;;;;;;5070407;28;20209;-72
2022/10/05 12:59:45;;;;;;;21.70;4.63;;;14.50;99.90;;;;;;5074493;28;20724;-72
2022/10/05 13:02:29;;;;;;;22.90;4.17;;;14.50;99.90;;;;;;5075069;28;20315;-72
2022/10/05 13:05:30;;;;;;;22.17;3.50;;;14.40;99.90;;;;;;5074903;28;20555;-72
2022/10/05 13:08:07;;;;;;;15.33;3.33;;;14.40;99.90;;;;;;5093726;28;20190;-72
2022/10/05 13:10:40;;;;;;;13.03;3.23;;;14.40;99.90;;;;;;5095586;28;20568;-71
2022/10/05 13:13:52;;;;;;;13.73;2.93;;;14.40;99.90;;;;;;5084915;28;20183;-72
2022/10/05 13:16:44;;;;;;;13.60;3.37;;;14.40;99.90;;;;;;5074560;28;20211;-71
2022/10/05 13:19:32;;;;;;;18.97;3.67;;;14.40;99.90;;;;;;5056297;28;20262;-71
2022/10/05 13:22:26;;;;;;;22.03;4.13;;;14.40;99.90;;;;;;5073917;28;20714;-70
2022/10/05 13:24:58;;;;;;;24.50;4.13;;;14.40;99.90;;;;;;5074871;28;20253;-70
2022/10/05 13:27:34;;;;;;;21.53;3.70;;;14.40;99.90;;;;;;5089642;28;20648;-71
2022/10/05 13:30:21;;;;;;;18.57;3.37;;;14.40;99.90;;;;;;5094629;28;20171;-71
2022/10/05 13:33:03;;;;;;;17.70;3.53;;;14.40;99.90;;;;;;5094406;28;20177;-70
2022/10/05 13:35:45;;;;;;;13.20;3.37;;;14.40;99.90;;;;;;5074096;28;20189;-71
2022/10/05 13:38:35;;;;;;;16.80;3.47;;;14.40;99.90;;;;;;5074108;28;20168;-70
2022/10/05 13:41:23;;;;;;;18.10;3.53;;;14.40;99.90;;;;;;5074262;28;20179;-70
2022/10/05 13:43:54;;;;;;;19.10;3.17;;;14.40;99.90;;;;;;5074073;28;20248;-70
2022/10/05 13:46:44;;;;;;;18.83;3.50;;;14.40;99.90;;;;;;5090374;28;20196;-71
2022/10/05 13:49:28;;;;;;;15.93;3.57;;;14.50;99.90;;;;;;5094035;28;20180;-71
2022/10/05 13:52:07;;;;;;;19.27;3.30;;;14.50;99.90;;;;;;5094758;28;20164;-71
2022/10/05 13:54:56;;;;;;;9.37;2.87;;;14.50;99.90;;;;;;5094543;28;20227;-69
2022/10/05 13:58:04;;;;;;;21.87;3.40;;;14.50;99.90;;;;;;5078699;28;20214;-72
2022/10/05 14:00:40;;;;;;;21.00;3.20;;;14.50;99.90;;;;;;5037216;28;20318;-72
2022/10/05 14:03:29;;;;;;;20.53;5.17;;;14.50;99.90;;;;;;5073357;28;20248;-71
2022/10/05 14:06:00;;;;;;;14.90;3.37;;;14.50;99.90;;;;;;5083167;28;20172;-71
2022/10/05 14:08:45;;;;;;;18.87;3.93;;;14.50;99.90;;;;;;5079202;28;20183;-71
2022/10/05 14:11:33;;;;;;;27.80;3.57;;;14.60;99.90;;;;;;5055726;28;20531;-71
2022/10/05 14:14:27;;;;;;;20.37;3.40;;;14.50;99.90;;;;;;5074136;28;20179;-71
2022/10/05 14:16:57;;;;;;;20.00;3.57;;;14.50;99.90;;;;;;5064797;28;20190;-71